Terminal Aerodrome Forecast
Issued by NWS

Home | Current Version | Previous Version | Text Only | Print | Product List | Glossary On
Versions: 1 2 3 4 5 6 7 8 9 10 11 12 13 14 15 16 17 18 19 20 21 22
000
FTUS43 KGRR 261700 RRA
TAFAZO
TAF
KAZO 261741Z 2618/2718 09006KT P6SM OVC025
     FM270300 02003KT P6SM OVC035
     FM271200 32006KT 6SM -SN OVC015=

USA.gov is the U.S. government's official web portal to all federal, state and local government web resources and services.